Time;durP1;ratioP1;P1;durP2;ratioP2;P2;SDS_P1;SDS_P2;PMS_P1;PMS_P2;Temp;Humidity;BMP_temperature;BMP_pressure;BME280_temperature;BME280_humidity;BME280_pressure;Samples;Min_cycle;Max_cycle;Signal;HPM_P1;HPM_P2
2023/05/04 00:02:23;;;;;;;;;;;;;;;22.06;53.43;100331.38;7315453;19;129627;-38
2023/05/04 00:04:52;;;;;;;;;;;;;;;22.05;54.07;100329.72;7316711;19;129648;-41
2023/05/04 00:07:17;;;;;;;;;;;;;;;22.04;53.82;100333.28;7314642;19;130507;-43
2023/05/04 00:09:43;;;;;;;;;;;;;;;22.06;54.39;100326.16;7313780;19;129714;-42
2023/05/04 00:12:08;;;;;;;;;;;;;;;22.08;54.25;100322.44;7314730;19;130912;-37
2023/05/04 00:14:34;;;;;;;;;;;;;;;22.09;53.63;100320.66;7317106;19;130338;-39
2023/05/04 00:17:00;;;;;;;;;;;;;;;22.10;53.78;100327.56;7313034;19;130313;-38
2023/05/04 00:19:25;;;;;;;;;;;;;;;22.12;54.21;100323.84;7316511;19;129206;-38
2023/05/04 00:21:50;;;;;;;;;;;;;;;22.14;54.02;100323.72;7315320;19;129291;-39
2023/05/04 00:24:16;;;;;;;;;;;;;;;22.12;53.86;100325.63;7315949;19;129190;-39
2023/05/04 00:26:41;;;;;;;;;;;;;;;21.28;50.52;100318.44;7313552;19;129187;-39
2023/05/04 00:29:06;;;;;;;;;;;;;;;21.21;50.33;100322.47;7315391;19;129507;-39
2023/05/04 00:31:31;;;;;;;;;;;;;;;21.40;51.61;100319.25;7314907;19;129034;-39
2023/05/04 00:33:57;;;;;;;;;;;;;;;21.59;53.28;100311.59;7316433;19;129493;-38
2023/05/04 00:36:22;;;;;;;;;;;;;;;21.73;54.00;100317.38;7309512;19;129634;-40
2023/05/04 00:38:48;;;;;;;;;;;;;;;21.84;53.51;100312.19;7316155;19;129407;-39
2023/05/04 00:41:14;;;;;;;;;;;;;;;21.93;53.28;100306.19;7315502;19;129494;-38
2023/05/04 00:43:39;;;;;;;;;;;;;;;22.00;53.44;100305.69;7315686;19;129825;-39
2023/05/04 00:46:04;;;;;;;;;;;;;;;22.04;53.61;100299.25;7313188;19;129234;-39
2023/05/04 00:48:30;;;;;;;;;;;;;;;22.05;53.25;100304.34;7315302;19;128815;-42
2023/05/04 00:50:55;;;;;;;;;;;;;;;22.03;53.54;100311.53;7315217;19;128922;-38
2023/05/04 00:53:20;;;;;;;;;;;;;;;22.08;53.65;100303.28;7315644;19;128975;-39
2023/05/04 00:55:45;;;;;;;;;;;;;;;22.07;53.86;100297.22;7312943;19;129172;-37
2023/05/04 00:58:11;;;;;;;;;;;;;;;22.08;53.62;100306.72;7312968;19;129497;-38
2023/05/04 01:00:39;;;;;;;;;;;;;;;22.08;53.93;100309.34;7313759;19;130134;-38
2023/05/04 01:03:04;;;;;;;;;;;;;;;22.06;53.67;100305.19;7312045;19;130102;-39
2023/05/04 01:05:33;;;;;;;;;;;;;;;22.11;53.88;100303.88;7312776;19;129104;-38
2023/05/04 01:08:12;;;;;;;;;;;;;;;22.14;54.23;100305.41;7315237;19;129446;-39
2023/05/04 01:10:37;;;;;;;;;;;;;;;22.16;53.67;100303.50;7315177;19;129256;-38
2023/05/04 01:13:12;;;;;;;;;;;;;;;21.37;50.91;100302.00;7311608;19;129469;-38
2023/05/04 01:15:38;;;;;;;;;;;;;;;21.17;50.33;100302.75;7313179;19;130175;-37
2023/05/04 01:18:04;;;;;;;;;;;;;;;21.19;50.00;100300.03;7312631;19;129523;-38
2023/05/04 01:20:29;;;;;;;;;;;;;;;21.54;53.19;100298.06;7314116;19;129925;-41
2023/05/04 01:22:55;;;;;;;;;;;;;;;21.71;53.25;100290.53;7310211;19;130093;-39
2023/05/04 01:25:20;;;;;;;;;;;;;;;21.83;53.69;100288.75;7314672;19;130554;-38
2023/05/04 01:27:48;;;;;;;;;;;;;;;21.90;54.09;100285.50;7314737;19;129527;-40
2023/05/04 01:30:24;;;;;;;;;;;;;;;21.92;53.24;100274.91;7315066;19;129902;-41
2023/05/04 01:32:50;;;;;;;;;;;;;;;22.03;53.71;100284.50;7309623;19;129568;-39
2023/05/04 01:35:16;;;;;;;;;;;;;;;22.03;53.84;100294.97;7312656;19;129621;-38
2023/05/04 01:37:41;;;;;;;;;;;;;;;22.04;54.02;100291.38;7309998;19;129116;-38
2023/05/04 01:40:07;;;;;;;;;;;;;;;22.05;54.08;100298.31;7313481;19;129734;-38
2023/05/04 01:42:32;;;;;;;;;;;;;;;22.06;53.54;100306.03;7311477;19;130740;-39
2023/05/04 01:44:57;;;;;;;;;;;;;;;22.08;53.72;100300.66;7313005;19;130246;-41
2023/05/04 01:47:23;;;;;;;;;;;;;;;22.09;53.96;100305.78;7312330;19;129221;-39
2023/05/04 01:49:48;;;;;;;;;;;;;;;22.10;53.80;100296.94;7314058;19;129823;-40
2023/05/04 01:52:13;;;;;;;;;;;;;;;22.12;53.62;100299.44;7310300;19;129518;-40
2023/05/04 01:54:38;;;;;;;;;;;;;;;22.11;53.99;100297.78;7311107;19;130214;-38
2023/05/04 01:57:04;;;;;;;;;;;;;;;22.07;53.70;100285.91;7311010;19;128941;-37
2023/05/04 01:59:29;;;;;;;;;;;;;;;21.45;50.38;100302.22;7314509;19;130457;-38
2023/05/04 02:01:54;;;;;;;;;;;;;;;21.24;50.13;100298.69;7309793;19;129027;-42
2023/05/04 02:04:19;;;;;;;;;;;;;;;21.21;50.46;100296.31;7313103;19;129728;-38
2023/05/04 02:06:45;;;;;;;;;;;;;;;21.52;53.73;100305.19;7311098;19;129542;-39
2023/05/04 02:09:10;;;;;;;;;;;;;;;21.69;53.66;100295.06;7313107;19;128989;-40
2023/05/04 02:11:36;;;;;;;;;;;;;;;21.81;53.71;100296.72;7311839;19;130120;-38
2023/05/04 02:14:01;;;;;;;;;;;;;;;21.90;54.02;100290.72;7312288;19;129704;-38
2023/05/04 02:16:26;;;;;;;;;;;;;;;21.96;54.13;100295.47;7310565;19;129704;-39
2023/05/04 02:18:52;;;;;;;;;;;;;;;22.02;53.36;100298.53;7312882;19;129366;-39
2023/05/04 02:21:17;;;;;;;;;;;;;;;22.01;53.45;100287.25;7311326;19;131187;-40
2023/05/04 02:23:42;;;;;;;;;;;;;;;22.04;53.42;100291.38;7311933;19;129925;-38
2023/05/04 02:26:07;;;;;;;;;;;;;;;22.06;53.58;100292.09;7311910;19;128754;-40
2023/05/04 02:28:32;;;;;;;;;;;;;;;21.95;54.01;100272.88;7312613;19;130064;-37
2023/05/04 02:30:58;;;;;;;;;;;;;;;22.08;53.88;100298.84;7310649;19;129596;-39
2023/05/04 02:33:23;;;;;;;;;;;;;;;22.10;53.81;100296.16;7312592;19;130310;-38
2023/05/04 02:35:48;;;;;;;;;;;;;;;22.12;53.95;100296.81;7311203;19;128797;-39
2023/05/04 02:38:14;;;;;;;;;;;;;;;22.10;54.22;100290.91;7310027;19;129206;-41
2023/05/04 02:40:40;;;;;;;;;;;;;;;22.10;54.25;100290.91;7312064;19;130491;-38
2023/05/04 02:43:05;;;;;;;;;;;;;;;22.11;54.38;100293.41;7307937;19;129473;-38
2023/05/04 02:45:30;;;;;;;;;;;;;;;21.41;50.44;100295.59;7310860;19;128781;-39
2023/05/04 02:47:56;;;;;;;;;;;;;;;21.14;50.41;100294.31;7310966;19;129280;-37
2023/05/04 02:50:21;;;;;;;;;;;;;;;21.24;49.90;100301.31;7315662;19;130184;-39
2023/05/04 02:52:46;;;;;;;;;;;;;;;21.50;53.76;100307.94;7316553;19;129622;-40
2023/05/04 02:55:11;;;;;;;;;;;;;;;21.63;53.82;100290.31;7317739;19;129032;-40
2023/05/04 02:57:37;;;;;;;;;;;;;;;21.80;54.03;100308.13;7316290;19;128883;-39
2023/05/04 03:00:04;;;;;;;;;;;;;;;21.89;53.71;100303.94;7318142;19;129395;-38
2023/05/04 03:02:29;;;;;;;;;;;;;;;21.96;53.97;100299.88;7316183;19;130328;-39
2023/05/04 03:04:54;;;;;;;;;;;;;;;22.03;53.18;100294.97;7318841;19;129770;-38
2023/05/04 03:07:19;;;;;;;;;;;;;;;22.04;54.04;100307.09;7316544;19;129100;-38
2023/05/04 03:09:45;;;;;;;;;;;;;;;22.04;53.47;100301.88;7317776;19;130298;-41
2023/05/04 03:12:10;;;;;;;;;;;;;;;22.04;53.86;100299.25;7316880;19;128907;-39
2023/05/04 03:14:35;;;;;;;;;;;;;;;22.07;53.92;100296.38;7318437;19;128764;-39
2023/05/04 03:17:01;;;;;;;;;;;;;;;22.07;53.75;100299.81;7315233;19;129945;-38
2023/05/04 03:19:26;;;;;;;;;;;;;;;22.02;53.85;100286.28;7318003;19;129078;-40
2023/05/04 03:21:51;;;;;;;;;;;;;;;22.08;53.95;100295.44;7316939;19;129616;-39
2023/05/04 03:24:17;;;;;;;;;;;;;;;22.09;54.24;100294.47;7317938;19;129409;-38
2023/05/04 03:26:42;;;;;;;;;;;;;;;22.11;54.04;100295.16;7316582;19;129455;-39
2023/05/04 03:29:07;;;;;;;;;;;;;;;22.11;53.92;100292.56;7317260;19;129057;-42
2023/05/04 03:31:33;;;;;;;;;;;;;;;21.46;50.64;100296.06;7316411;19;129306;-38
2023/05/04 03:33:58;;;;;;;;;;;;;;;21.16;50.76;100293.25;7317434;19;128885;-39
2023/05/04 03:36:23;;;;;;;;;;;;;;;21.20;50.43;100294.69;7316140;19;129062;-38
2023/05/04 03:38:48;;;;;;;;;;;;;;;21.43;53.35;100291.09;7318071;19;130156;-39
2023/05/04 03:41:14;;;;;;;;;;;;;;;21.65;53.24;100293.63;7312935;19;129246;-38
2023/05/04 03:43:39;;;;;;;;;;;;;;;21.77;53.38;100290.06;7317041;19;129464;-38
2023/05/04 03:46:04;;;;;;;;;;;;;;;21.88;53.48;100291.81;7315406;19;129718;-40
2023/05/04 03:48:30;;;;;;;;;;;;;;;21.93;53.88;100289.66;7317540;19;129289;-39
2023/05/04 03:50:55;;;;;;;;;;;;;;;21.87;54.00;100272.66;7316180;19;130336;-38
2023/05/04 03:53:20;;;;;;;;;;;;;;;22.01;53.93;100291.66;7312479;19;130047;-39
2023/05/04 03:55:46;;;;;;;;;;;;;;;22.04;53.33;100296.63;7315227;19;129717;-39
2023/05/04 03:58:11;;;;;;;;;;;;;;;22.03;53.63;100287.13;7313954;19;129884;-36
2023/05/04 04:00:36;;;;;;;;;;;;;;;22.04;53.51;100296.63;7315970;19;129555;-38
2023/05/04 04:03:02;;;;;;;;;;;;;;;22.04;54.14;100292.22;7313181;19;129255;-39
2023/05/04 04:07:55;;;;;;;;;;;;;;;22.08;54.15;100282.34;7302279;19;130283;-41
2023/05/04 04:10:20;;;;;;;;;;;;;;;22.08;54.38;100290.19;7314048;19;129557;-42
2023/05/04 04:12:45;;;;;;;;;;;;;;;21.96;53.95;100264.03;7307270;19;129228;-41
2023/05/04 04:15:11;;;;;;;;;;;;;;;22.11;54.03;100284.69;7314811;19;129052;-44
2023/05/04 04:17:36;;;;;;;;;;;;;;;21.47;51.28;100287.25;7311271;19;131302;-42
2023/05/04 04:20:01;;;;;;;;;;;;;;;21.14;51.06;100284.69;7312867;19;129628;-41
2023/05/04 04:22:27;;;;;;;;;;;;;;;21.19;50.68;100289.56;7312731;19;129862;-41
2023/05/04 04:24:52;;;;;;;;;;;;;;;21.47;53.06;100289.06;7314548;19;129088;-40
2023/05/04 04:27:17;;;;;;;;;;;;;;;21.67;53.81;100289.09;7314284;19;130869;-42
2023/05/04 04:29:42;;;;;;;;;;;;;;;21.79;53.74;100288.16;7311995;19;129584;-42
2023/05/04 04:32:08;;;;;;;;;;;;;;;21.86;53.37;100288.50;7311542;19;129483;-39
2023/05/04 04:34:33;;;;;;;;;;;;;;;21.82;53.63;100277.44;7315182;19;129016;-33
2023/05/04 04:36:59;;;;;;;;;;;;;;;21.94;53.32;100289.53;7313354;19;130130;-30
2023/05/04 04:39:25;;;;;;;;;;;;;;;22.00;53.38;100290.81;7312775;19;131394;-34
2023/05/04 04:41:50;;;;;;;;;;;;;;;21.91;53.70;100274.06;7308489;19;130277;-38
2023/05/04 04:44:15;;;;;;;;;;;;;;;22.00;53.79;100290.81;7306497;19;129227;-42
2023/05/04 04:46:41;;;;;;;;;;;;;;;22.03;54.17;100297.59;7306340;19;130411;-39
2023/05/04 04:49:06;;;;;;;;;;;;;;;22.03;53.75;100295.81;7295407;19;131854;-39
2023/05/04 04:51:31;;;;;;;;;;;;;;;22.06;53.93;100294.72;7291011;19;130915;-37
2023/05/04 04:53:56;;;;;;;;;;;;;;;21.95;54.17;100275.47;7291722;19;129760;-45
2023/05/04 04:56:22;;;;;;;;;;;;;;;22.07;53.70;100296.38;7289967;19;130182;-44
2023/05/04 04:58:47;;;;;;;;;;;;;;;22.10;53.62;100296.16;7282668;19;131265;-43
2023/05/04 05:01:17;;;;;;;;;;;;;;;22.10;54.32;100296.16;7292616;19;131103;-38
2023/05/04 05:03:45;;;;;;;;;;;;;;;21.25;50.82;100294.31;7304262;19;129396;-31
2023/05/04 05:06:11;;;;;;;;;;;;;;;21.10;50.60;100298.97;7312162;19;130944;-37
2023/05/04 05:08:37;;;;;;;;;;;;;;;21.19;49.96;100300.84;7313075;19;131287;-42
2023/05/04 05:11:02;;;;;;;;;;;;;;;21.54;53.58;100304.13;7312983;19;130258;-35
2023/05/04 05:13:28;;;;;;;;;;;;;;;21.69;53.23;100302.91;7310004;19;128934;-38
2023/05/04 05:15:54;;;;;;;;;;;;;;;21.77;53.49;100295.28;7311163;19;129424;-33
2023/05/04 05:18:19;;;;;;;;;;;;;;;21.86;54.16;100289.34;7307903;19;130018;-40
2023/05/04 05:20:44;;;;;;;;;;;;;;;21.90;53.64;100301.19;7312698;19;129315;-39
2023/05/04 05:23:10;;;;;;;;;;;;;;;21.94;53.62;100297.41;7309961;19;129461;-36
2023/05/04 05:25:36;;;;;;;;;;;;;;;21.94;53.64;100291.31;7309658;19;131141;-32
2023/05/04 05:28:01;;;;;;;;;;;;;;;21.98;53.73;100287.50;7311882;19;129436;-34
2023/05/04 05:30:27;;;;;;;;;;;;;;;22.01;54.36;100286.41;7307906;19;129127;-36
2023/05/04 05:32:52;;;;;;;;;;;;;;;22.03;53.67;100284.50;7309075;19;129463;-36
2023/05/04 05:35:18;;;;;;;;;;;;;;;22.05;53.94;100293.06;7309743;19;129400;-36
2023/05/04 05:37:43;;;;;;;;;;;;;;;22.05;53.88;100293.06;7311307;19;131139;-37
2023/05/04 05:40:08;;;;;;;;;;;;;;;22.05;54.27;100293.06;7312160;19;130029;-35
2023/05/04 05:42:33;;;;;;;;;;;;;;;22.06;54.16;100290.31;7295282;19;130768;-39
2023/05/04 05:45:00;;;;;;;;;;;;;;;22.07;53.57;100291.13;7296302;19;129953;-38
2023/05/04 05:47:26;;;;;;;;;;;;;;;22.08;53.97;100293.63;7304829;19;132684;-35
2023/05/04 05:49:51;;;;;;;;;;;;;;;21.50;50.58;100292.22;7311425;19;128904;-34
2023/05/04 05:52:17;;;;;;;;;;;;;;;21.11;50.92;100290.16;7307423;19;129239;-34
2023/05/04 05:54:42;;;;;;;;;;;;;;;21.14;50.10;100295.13;7305104;19;130393;-34
2023/05/04 05:57:07;;;;;;;;;;;;;;;21.48;53.24;100293.31;7308569;19;130043;-39
2023/05/04 05:59:32;;;;;;;;;;;;;;;21.66;53.38;100297.94;7309718;19;129170;-35
2023/05/04 06:01:58;;;;;;;;;;;;;;;21.65;53.27;100272.69;7305090;19;130930;-38
2023/05/04 06:04:24;;;;;;;;;;;;;;;21.84;53.81;100288.63;7295250;19;130614;-37
2023/05/04 06:06:49;;;;;;;;;;;;;;;21.89;53.46;100294.31;7299015;19;130721;-35
2023/05/04 06:09:14;;;;;;;;;;;;;;;21.91;53.36;100292.38;7310539;19;130136;-33
2023/05/04 06:11:39;;;;;;;;;;;;;;;21.86;53.80;100278.88;7310460;19;128973;-37
2023/05/04 06:14:05;;;;;;;;;;;;;;;21.95;54.27;100277.25;7309932;19;129187;-34
2023/05/04 06:16:30;;;;;;;;;;;;;;;21.96;53.92;100274.50;7309804;19;130819;-33
2023/05/04 06:18:55;;;;;;;;;;;;;;;21.95;53.64;100275.47;7308333;19;129566;-38
2023/05/04 06:21:21;;;;;;;;;;;;;;;21.98;54.40;100276.19;7309848;19;129141;-36
2023/05/04 06:23:46;;;;;;;;;;;;;;;22.00;53.89;100275.09;7306272;19;129885;-41
2023/05/04 06:26:12;;;;;;;;;;;;;;;22.01;54.17;100270.69;7315536;19;131380;-35
2023/05/04 06:28:37;;;;;;;;;;;;;;;22.01;54.31;100270.69;7317419;19;129298;-38
2023/05/04 06:31:02;;;;;;;;;;;;;;;22.03;54.35;100269.63;7318738;19;129034;-42
2023/05/04 06:33:28;;;;;;;;;;;;;;;22.03;54.37;100263.56;7315374;19;130938;-40
2023/05/04 06:35:53;;;;;;;;;;;;;;;21.29;50.70;100270.41;7315885;19;129755;-42
2023/05/04 06:38:18;;;;;;;;;;;;;;;21.09;50.89;100271.13;7313890;19;129734;-39
2023/05/04 06:40:43;;;;;;;;;;;;;;;21.19;50.46;100272.06;7317651;19;129561;-41
2023/05/04 06:43:09;;;;;;;;;;;;;;;21.41;53.81;100272.06;7314401;19;131615;-42
2023/05/04 06:45:34;;;;;;;;;;;;;;;21.61;53.82;100276.53;7314458;19;129372;-41
2023/05/04 06:48:00;;;;;;;;;;;;;;;21.72;53.96;100271.25;7317391;19;129624;-41
2023/05/04 06:50:25;;;;;;;;;;;;;;;21.79;53.57;100272.47;7316987;19;128875;-41
2023/05/04 06:52:51;;;;;;;;;;;;;;;21.86;53.89;100268.41;7306772;19;130917;-35
2023/05/04 06:55:16;;;;;;;;;;;;;;;21.85;53.46;100264.09;7315424;19;129430;-34
2023/05/04 06:57:42;;;;;;;;;;;;;;;21.92;53.41;100273.13;7298445;19;132408;-35
2023/05/04 07:00:07;;;;;;;;;;;;;;;21.95;54.04;100272.88;7306228;19;129691;-34
2023/05/04 07:02:33;;;;;;;;;;;;;;;21.96;53.76;100268.47;7314738;19;130122;-33
2023/05/04 07:04:58;;;;;;;;;;;;;;;21.97;53.46;100259.66;7314613;19;130468;-34
2023/05/04 07:07:23;;;;;;;;;;;;;;;21.98;53.97;100269.97;7314484;19;128824;-37
2023/05/04 07:09:49;;;;;;;;;;;;;;;22.00;53.63;100263.81;7315791;19;130109;-35
2023/05/04 07:12:14;;;;;;;;;;;;;;;22.02;53.68;100261.88;7314556;19;129494;-36
2023/05/04 07:14:39;;;;;;;;;;;;;;;22.03;54.37;100260.94;7313300;19;131174;-39
2023/05/04 07:17:04;;;;;;;;;;;;;;;22.05;54.33;100264.25;7315038;19;130212;-35
2023/05/04 07:19:30;;;;;;;;;;;;;;;22.04;53.83;100263.44;7315417;19;129818;-37
2023/05/04 07:21:56;;;;;;;;;;;;;;;21.46;51.28;100259.44;7313352;19;131156;-34
2023/05/04 07:24:21;;;;;;;;;;;;;;;21.09;50.99;100260.66;7314407;19;130379;-33
2023/05/04 07:26:46;;;;;;;;;;;;;;;21.09;50.57;100257.25;7313173;19;129032;-37
2023/05/04 07:29:11;;;;;;;;;;;;;;;21.37;53.42;100243.66;7316382;19;128844;-35
2023/05/04 07:31:37;;;;;;;;;;;;;;;21.57;53.19;100262.00;7313913;19;130051;-35
2023/05/04 07:34:02;;;;;;;;;;;;;;;21.69;53.67;100244.50;7313585;19;130539;-35
2023/05/04 07:36:27;;;;;;;;;;;;;;;21.78;53.91;100249.03;7311603;19;129227;-37
2023/05/04 07:38:53;;;;;;;;;;;;;;;21.79;53.45;100237.59;7312926;19;129464;-34
2023/05/04 07:41:18;;;;;;;;;;;;;;;21.91;53.69;100234.78;7310128;19;130823;-37
2023/05/04 07:43:44;;;;;;;;;;;;;;;21.93;54.08;100235.50;7314978;19;130353;-35
2023/05/04 07:46:09;;;;;;;;;;;;;;;21.94;53.40;100221.47;7313915;19;128896;-35
2023/05/04 07:48:35;;;;;;;;;;;;;;;21.98;54.14;100239.53;7316328;19;129110;-37
2023/05/04 07:51:00;;;;;;;;;;;;;;;21.98;53.75;100229.06;7314202;19;130880;-35
2023/05/04 07:53:25;;;;;;;;;;;;;;;21.98;53.95;100225.47;7312652;19;131041;-37
2023/05/04 07:55:53;;;;;;;;;;;;;;;22.00;54.08;100217.50;7311891;19;129687;-39
2023/05/04 07:58:18;;;;;;;;;;;;;;;22.00;54.37;100229.78;7313908;19;130468;-35
2023/05/04 08:00:43;;;;;;;;;;;;;;;22.02;54.41;100233.91;7315202;19;130111;-36
2023/05/04 08:03:09;;;;;;;;;;;;;;;22.00;54.47;100227.97;7310870;19;129102;-39
2023/05/04 08:05:34;;;;;;;;;;;;;;;21.91;53.80;100207.78;7313965;19;129503;-39
2023/05/04 08:07:59;;;;;;;;;;;;;;;21.34;51.43;100220.34;7314973;19;131293;-40
2023/05/04 08:10:25;;;;;;;;;;;;;;;21.04;51.40;100226.22;7313465;19;130132;-38
2023/05/04 08:12:50;;;;;;;;;;;;;;;21.11;50.36;100227.41;7310327;19;130462;-41
2023/05/04 08:15:16;;;;;;;;;;;;;;;21.34;53.87;100226.41;7313734;19;129407;-40
2023/05/04 08:17:41;;;;;;;;;;;;;;;21.57;53.31;100222.78;7311158;19;129755;-42
2023/05/04 08:20:06;;;;;;;;;;;;;;;21.69;53.59;100224.41;7311985;19;129657;-36
2023/05/04 08:22:32;;;;;;;;;;;;;;;21.78;53.74;100221.03;7306673;19;130347;-38
2023/05/04 08:24:57;;;;;;;;;;;;;;;21.83;53.87;100231.97;7313145;19;129071;-42
2023/05/04 08:27:23;;;;;;;;;;;;;;;21.89;53.86;100235.88;7313405;19;129739;-36
2023/05/04 08:29:48;;;;;;;;;;;;;;;21.93;53.69;100221.59;7310980;19;131060;-39
2023/05/04 08:32:13;;;;;;;;;;;;;;;21.94;53.92;100223.25;7311680;19;129514;-37
2023/05/04 08:34:38;;;;;;;;;;;;;;;21.96;53.55;100226.56;7314743;19;129058;-41
2023/05/04 08:37:03;;;;;;;;;;;;;;;21.95;54.17;100220.50;7310622;19;129336;-37
2023/05/04 08:39:29;;;;;;;;;;;;;;;21.95;54.18;100220.50;7312046;19;130584;-38
2023/05/04 08:41:54;;;;;;;;;;;;;;;21.98;54.06;100219.44;7311830;19;132597;-37
2023/05/04 08:44:20;;;;;;;;;;;;;;;21.96;54.07;100211.69;7314804;19;129343;-43
2023/05/04 08:46:51;;;;;;;;;;;;;;;21.98;54.29;100213.34;7312809;19;129889;-40
2023/05/04 08:49:17;;;;;;;;;;;;;;;21.96;54.15;100221.34;7301168;19;130449;-31
2023/05/04 08:51:42;;;;;;;;;;;;;;;21.96;54.21;100211.69;7306413;19;130420;-42
2023/05/04 08:54:09;;;;;;;;;;;;;;;21.14;50.72;100190.56;7312255;19;130449;-41
2023/05/04 08:56:35;;;;;;;;;;;;;;;21.06;50.90;100206.03;7311704;19;129139;-42
2023/05/04 08:59:02;;;;;;;;;;;;;;;21.08;50.42;100211.97;7309351;19;131181;-39
2023/05/04 09:01:28;;;;;;;;;;;;;;;21.35;53.76;100209.78;7311360;19;129318;-39
2023/05/04 09:03:55;;;;;;;;;;;;;;;21.56;53.93;100210.66;7312675;19;129664;-38
2023/05/04 09:06:20;;;;;;;;;;;;;;;21.69;53.63;100213.09;7311221;19;130376;-43
2023/05/04 09:08:46;;;;;;;;;;;;;;;21.77;53.95;100214.16;7312368;19;129078;-39
2023/05/04 09:11:11;;;;;;;;;;;;;;;21.84;53.56;100212.72;7309209;19;130356;-41
2023/05/04 09:13:37;;;;;;;;;;;;;;;21.89;53.68;100205.31;7311859;19;129357;-42
2023/05/04 09:16:02;;;;;;;;;;;;;;;21.93;53.71;100201.47;7311705;19;129524;-39
2023/05/04 09:18:38;;;;;;;;;;;;;;;21.94;53.68;100192.66;7310083;19;131017;-42
2023/05/04 09:21:03;;;;;;;;;;;;;;;21.95;53.42;100204.78;7311969;19;130997;-38
2023/05/04 09:23:28;;;;;;;;;;;;;;;21.94;54.16;100197.91;7312789;19;129001;-40
2023/05/04 09:25:54;;;;;;;;;;;;;;;21.98;53.91;100200.25;7311270;19;129124;-34
2023/05/04 09:28:31;;;;;;;;;;;;;;;21.98;53.76;100192.41;7312132;19;130825;-32
2023/05/04 09:30:59;;;;;;;;;;;;;;;21.98;53.81;100202.88;7313566;19;130471;-31
2023/05/04 09:33:24;;;;;;;;;;;;;;;21.92;53.76;100184.09;7311735;19;129740;-46
2023/05/04 09:35:50;;;;;;;;;;;;;;;21.97;54.50;100196.81;7311283;19;129522;-29
2023/05/04 09:38:31;;;;;;;;;;;;;;;21.95;53.56;100203.94;7311547;19;130129;-39
2023/05/04 09:40:56;;;;;;;;;;;;;;;20.99;51.52;100173.47;7312267;19;130403;-36
2023/05/04 09:43:23;;;;;;;;;;;;;;;21.06;51.17;100195.56;7310806;19;129338;-34
2023/05/04 09:45:48;;;;;;;;;;;;;;;21.34;52.78;100191.56;7312436;19;129175;-37
2023/05/04 09:48:17;;;;;;;;;;;;;;;21.48;53.85;100194.75;7312535;19;130224;-35
2023/05/04 09:50:47;;;;;;;;;;;;;;;21.62;53.51;100186.59;7311703;19;131176;-35
2023/05/04 09:53:13;;;;;;;;;;;;;;;21.74;53.82;100182.13;7303841;19;130357;-37
2023/05/04 09:55:41;;;;;;;;;;;;;;;21.78;54.26;100181.78;7310635;19;128821;-29
2023/05/04 09:58:07;;;;;;;;;;;;;;;21.82;54.17;100183.22;7308425;19;130569;-37
2023/05/04 10:00:34;;;;;;;;;;;;;;;21.87;53.66;100172.34;7310481;19;129656;-36
2023/05/04 10:03:02;;;;;;;;;;;;;;;21.89;54.03;100179.13;7308340;19;130085;-33
2023/05/04 10:05:28;;;;;;;;;;;;;;;21.93;54.32;100164.81;7310117;19;129113;-32
2023/05/04 10:07:53;;;;;;;;;;;;;;;21.92;53.80;100163.16;7311545;19;129193;-34
2023/05/04 10:10:18;;;;;;;;;;;;;;;21.86;53.84;100149.75;7309682;19;131281;-35
2023/05/04 10:12:44;;;;;;;;;;;;;;;21.93;53.92;100148.28;7308904;19;128876;-39
2023/05/04 10:15:10;;;;;;;;;;;;;;;21.94;53.87;100161.25;7312131;19;130243;-40
2023/05/04 10:17:48;;;;;;;;;;;;;;;21.91;53.83;100156.25;7310138;19;130493;-40
2023/05/04 10:20:21;;;;;;;;;;;;;;;21.93;54.21;100149.09;7310757;19;129231;-36
2023/05/04 10:22:55;;;;;;;;;;;;;;;21.95;54.01;100152.44;7306599;19;129226;-38
2023/05/04 10:25:38;;;;;;;;;;;;;;;21.96;54.67;100164.56;7310495;19;130016;-38
2023/05/04 10:28:22;;;;;;;;;;;;;;;21.14;50.93;100153.94;7309276;19;130257;-40
2023/05/04 10:30:53;;;;;;;;;;;;;;;21.07;51.01;100149.34;7309769;19;130743;-36
2023/05/04 10:33:18;;;;;;;;;;;;;;;21.17;52.40;100124.94;7308221;19;129668;-37
2023/05/04 10:35:50;;;;;;;;;;;;;;;21.43;53.37;100126.28;7310236;19;129617;-37
2023/05/04 10:38:16;;;;;;;;;;;;;;;21.63;53.47;100124.63;7308394;19;130170;-39
2023/05/04 10:40:41;;;;;;;;;;;;;;;21.71;53.62;100128.28;7309003;19;129739;-41
2023/05/04 10:43:07;;;;;;;;;;;;;;;21.79;53.66;100125.88;7309340;19;129165;-39
2023/05/04 10:45:36;;;;;;;;;;;;;;;21.80;53.97;100100.53;7305859;19;129695;-38
2023/05/04 10:48:03;;;;;;;;;;;;;;;21.75;53.50;100085.19;7291618;19;131232;-40
2023/05/04 10:50:39;;;;;;;;;;;;;;;21.81;54.17;100087.34;7296551;19;132137;-41
2023/05/04 10:53:04;;;;;;;;;;;;;;;21.89;53.74;100097.97;7301924;19;130281;-40
2023/05/04 10:55:37;;;;;;;;;;;;;;;21.90;53.63;100097.00;7308801;19;129807;-42
2023/05/04 10:58:02;;;;;;;;;;;;;;;21.92;54.34;100100.34;7307607;19;130464;-42
2023/05/04 11:00:37;;;;;;;;;;;;;;;21.84;54.04;100083.59;7307552;19;130485;-40
2023/05/04 11:03:03;;;;;;;;;;;;;;;21.92;53.79;100095.09;7304299;19;129067;-38
2023/05/04 11:05:38;;;;;;;;;;;;;;;21.94;54.60;100097.59;7309916;19;129541;-40
2023/05/04 11:08:13;;;;;;;;;;;;;;;21.94;54.20;100094.97;7309178;19;130334;-38
2023/05/04 11:10:38;;;;;;;;;;;;;;;21.94;54.37;100087.94;7309601;19;130448;-38
2023/05/04 11:13:04;;;;;;;;;;;;;;;21.32;51.15;100081.84;7311269;19;129474;-39
2023/05/04 11:15:30;;;;;;;;;;;;;;;21.12;51.24;100072.19;7314916;19;129501;-36
2023/05/04 11:17:55;;;;;;;;;;;;;;;21.12;50.20;100072.19;7316995;19;130112;-41
2023/05/04 11:20:21;;;;;;;;;;;;;;;21.40;53.32;100076.81;7315565;19;130191;-33
2023/05/04 11:22:46;;;;;;;;;;;;;;;21.53;53.44;100066.19;7312590;19;130592;-42
2023/05/04 11:25:12;;;;;;;;;;;;;;;21.57;53.96;100051.88;7315148;19;129049;-36
2023/05/04 11:27:37;;;;;;;;;;;;;;;21.72;53.67;100061.88;7316264;19;130301;-38
2023/05/04 11:30:05;;;;;;;;;;;;;;;21.81;53.59;100055.91;7315333;19;130919;-35
2023/05/04 11:32:34;;;;;;;;;;;;;;;21.85;53.54;100046.84;7313456;19;129072;-32
2023/05/04 11:34:59;;;;;;;;;;;;;;;21.85;54.11;100046.84;7317612;19;129627;-37
2023/05/04 11:37:27;;;;;;;;;;;;;;;21.89;53.68;100047.41;7315151;19;130436;-36
2023/05/04 11:39:53;;;;;;;;;;;;;;;21.87;54.24;100051.94;7313133;19;130310;-37
2023/05/04 11:42:18;;;;;;;;;;;;;;;21.90;53.79;100047.28;7314136;19;130418;-33
2023/05/04 11:44:44;;;;;;;;;;;;;;;21.91;54.55;100050.72;7317432;19;130093;-35
2023/05/04 11:47:09;;;;;;;;;;;;;;;21.92;53.89;100047.13;7308550;19;130253;-39
2023/05/04 11:49:34;;;;;;;;;;;;;;;21.95;53.78;100039.00;7314489;19;131362;-35
2023/05/04 11:52:06;;;;;;;;;;;;;;;21.94;54.10;100040.00;7313670;19;130127;-35
2023/05/04 11:54:31;;;;;;;;;;;;;;;21.94;54.34;100042.59;7314534;19;129996;-35
2023/05/04 11:56:57;;;;;;;;;;;;;;;21.94;54.04;100040.81;7311132;19;130131;-41
2023/05/04 11:59:22;;;;;;;;;;;;;;;21.07;50.91;100022.09;7311204;19;130438;-42
2023/05/04 12:01:48;;;;;;;;;;;;;;;21.10;51.37;100027.06;7310642;19;129472;-39
2023/05/04 12:04:13;;;;;;;;;;;;;;;21.14;50.92;100028.44;7313764;19;129824;-36
2023/05/04 12:06:39;;;;;;;;;;;;;;;21.38;53.66;100026.44;7312910;19;130523;-38
2023/05/04 12:09:04;;;;;;;;;;;;;;;21.53;54.15;100029.56;7313530;19;130958;-37
2023/05/04 12:11:30;;;;;;;;;;;;;;;21.64;53.55;100022.47;7311921;19;129962;-34
2023/05/04 12:14:08;;;;;;;;;;;;;;;21.73;54.03;100026.91;7315452;19;129766;-39
2023/05/04 12:16:34;;;;;;;;;;;;;;;21.79;54.16;100018.56;7314342;19;130384;-41
2023/05/04 12:19:04;;;;;;;;;;;;;;;21.82;54.40;100018.31;7312384;19;130282;-42
2023/05/04 12:21:30;;;;;;;;;;;;;;;21.83;54.26;100012.09;7311801;19;130284;-38
2023/05/04 12:23:56;;;;;;;;;;;;;;;21.85;53.88;100011.97;7308420;19;129486;-41
2023/05/04 12:26:22;;;;;;;;;;;;;;;21.85;54.43;100010.19;7312037;19;130056;-36